Accueil
METAR-TAF:

METAR-TAF

Aéroports :

Aérodrome de Samedan-Engadin

Saint-Moritz, Suisse

latitude: 46-32-03N, longitude: 9-53-03E, altitude: 1707 m

Observation

Le bulletin a été fait il y a 37 minutes, à 02:50 UTC
Vent 5 kt de nord/nord-est
Température 5°C
Humidité 93%
Pression 1017 hPa
Visibilité 10 km ou plus

METAR: LSZS 020250Z AUTO 02005KT 9999 NSC 05/04 Q1017

Heure: 05:27 (03:27 UTC)

Prévision

Le bulletin a été fait il y a 8 heures et 48 minutes, à 18:39 UTC
Prévision valable du 01 à 18 UTC au 01 à 24 UTC
Vent 2 kt de sud-est
Visibilité 10 km ou plus
Nuages fragmentés à une hauteur de 4100 ft
Temporairement
du 01 à 18 UTC au 01 à 22 UTC
Visibilité: 4500 m
Nuages épars à une hauteur de 5000 ft, Cumulus congestus.
averses de pluie

TAF: LSZS 011839Z 0118/0124 13002KT 9999 BKN041 TX10/0115Z TEMPO 0118/0122 4500 SHRA SCT050TCU

Observations et prévisions météorologiques de plus de 4000 aéroports (messages METAR et TAF).

Les stations disponibles sont représentées par des disques jaunes et rouges sur la carte.

Passer la souris dessus pour voir le nom de la station.

Cliquer dessus pour voir les observations et prévisions météorologiques.

Pour changer de carte: cliquez sur les boutons verts avec une croix noire pour zoomer, sur le bouton vert avec un tiret pour effectuer un zoom arrière, ou sur les flèches vertes pour les cartes adjacentes.


METAR-TAF: